sensor_id;sensor_type;location;lat;lon;timestamp;pressure;altitude;pressure_sealevel;temperature;humidity
69411;BME280;56604;48.652;9.194;2022-09-03T00:01:52;95963.75;;;16.99;56.62
69411;BME280;56604;48.652;9.194;2022-09-03T00:04:27;95963.94;;;17.03;56.68
69411;BME280;56604;48.652;9.194;2022-09-03T00:07:02;95957.13;;;17.11;56.13
69411;BME280;56604;48.652;9.194;2022-09-03T00:09:40;95949.94;;;17.11;56.02
69411;BME280;56604;48.652;9.194;2022-09-03T00:12:12;95960.34;;;17.21;55.60
69411;BME280;56604;48.652;9.194;2022-09-03T00:14:45;95952.09;;;17.23;55.89
69411;BME280;56604;48.652;9.194;2022-09-03T00:17:21;95956.81;;;17.26;55.67
69411;BME280;56604;48.652;9.194;2022-09-03T00:19:59;95957.00;;;17.29;55.51
69411;BME280;56604;48.652;9.194;2022-09-03T00:22:31;95958.59;;;17.17;56.04
69411;BME280;56604;48.652;9.194;2022-09-03T00:25:02;95955.94;;;17.17;56.55
69411;BME280;56604;48.652;9.194;2022-09-03T00:27:31;95954.84;;;17.18;56.04
69411;BME280;56604;48.652;9.194;2022-09-03T00:30:08;95950.91;;;17.15;56.33
69411;BME280;56604;48.652;9.194;2022-09-03T00:33:17;95958.28;;;17.18;55.99
69411;BME280;56604;48.652;9.194;2022-09-03T00:35:26;95950.53;;;17.22;55.93
69411;BME280;56604;48.652;9.194;2022-09-03T00:37:53;95952.59;;;17.25;56.06
69411;BME280;56604;48.652;9.194;2022-09-03T00:41:03;95947.88;;;17.22;56.75
69411;BME280;56604;48.652;9.194;2022-09-03T00:52:52;95952.50;;;17.16;56.63
69411;BME280;56604;48.652;9.194;2022-09-03T00:55:51;95953.75;;;17.19;56.81
69411;BME280;56604;48.652;9.194;2022-09-03T01:01:20;95947.97;;;17.17;56.86
69411;BME280;56604;48.652;9.194;2022-09-03T01:04:00;95950.63;;;17.17;57.06
69411;BME280;56604;48.652;9.194;2022-09-03T01:06:45;95945.78;;;17.19;56.69
69411;BME280;56604;48.652;9.194;2022-09-03T01:09:35;95942.75;;;17.12;56.83
69411;BME280;56604;48.652;9.194;2022-09-03T01:12:17;95937.94;;;17.14;57.03
69411;BME280;56604;48.652;9.194;2022-09-03T01:14:53;95943.84;;;17.11;56.93
69411;BME280;56604;48.652;9.194;2022-09-03T01:25:26;95943.25;;;17.14;58.21
69411;BME280;56604;48.652;9.194;2022-09-03T01:30:43;95943.44;;;17.17;58.15
69411;BME280;56604;48.652;9.194;2022-09-03T01:33:22;95945.91;;;17.14;58.20
69411;BME280;56604;48.652;9.194;2022-09-03T01:36:04;95953.88;;;17.14;58.38
69411;BME280;56604;48.652;9.194;2022-09-03T01:38:40;95947.75;;;17.13;58.31
69411;BME280;56604;48.652;9.194;2022-09-03T01:53:33;95953.88;;;17.14;58.03
69411;BME280;56604;48.652;9.194;2022-09-03T01:56:21;95965.81;;;17.02;59.20
69411;BME280;56604;48.652;9.194;2022-09-03T01:59:02;95970.81;;;17.04;59.26
69411;BME280;56604;48.652;9.194;2022-09-03T02:02:04;95961.75;;;17.05;59.39
69411;BME280;56604;48.652;9.194;2022-09-03T02:04:32;95966.88;;;17.01;60.28
69411;BME280;56604;48.652;9.194;2022-09-03T02:06:59;95961.56;;;17.01;60.17
69411;BME280;56604;48.652;9.194;2022-09-03T02:09:25;95957.53;;;16.90;60.95
69411;BME280;56604;48.652;9.194;2022-09-03T02:12:03;95962.38;;;16.88;61.08
69411;BME280;56604;48.652;9.194;2022-09-03T02:14:33;95959.22;;;16.86;60.41
69411;BME280;56604;48.652;9.194;2022-09-03T02:16:59;95967.09;;;16.91;60.93
69411;BME280;56604;48.652;9.194;2022-09-03T02:19:26;95969.44;;;16.93;61.48
69411;BME280;56604;48.652;9.194;2022-09-03T02:21:53;95960.00;;;17.00;60.86
69411;BME280;56604;48.652;9.194;2022-09-03T02:24:19;95965.31;;;17.00;61.50
69411;BME280;56604;48.652;9.194;2022-09-03T02:26:45;95961.38;;;16.98;61.22
69411;BME280;56604;48.652;9.194;2022-09-03T02:29:12;95966.50;;;16.94;61.49
69411;BME280;56604;48.652;9.194;2022-09-03T02:31:38;95961.19;;;16.94;61.68
69411;BME280;56604;48.652;9.194;2022-09-03T02:34:03;95957.53;;;16.90;61.68
69411;BME280;56604;48.652;9.194;2022-09-03T02:36:36;95968.75;;;16.87;62.07
69411;BME280;56604;48.652;9.194;2022-09-03T02:39:02;95955.88;;;16.80;61.85
69411;BME280;56604;48.652;9.194;2022-09-03T02:41:29;95953.09;;;16.72;62.18
69411;BME280;56604;48.652;9.194;2022-09-03T02:43:57;95953.88;;;16.72;62.54
69411;BME280;56604;48.652;9.194;2022-09-03T02:48:59;95949.75;;;16.66;62.80
69411;BME280;56604;48.652;9.194;2022-09-03T02:51:24;95954.56;;;16.64;62.92
69411;BME280;56604;48.652;9.194;2022-09-03T02:53:49;95951.59;;;16.52;63.39
69411;BME280;56604;48.652;9.194;2022-09-03T02:56:15;95959.84;;;16.50;63.73
69411;BME280;56604;48.652;9.194;2022-09-03T02:58:40;95962.31;;;16.47;63.62
69411;BME280;56604;48.652;9.194;2022-09-03T03:01:05;95963.09;;;16.47;63.48
69411;BME280;56604;48.652;9.194;2022-09-03T03:03:31;95957.38;;;16.40;63.62
69411;BME280;56604;48.652;9.194;2022-09-03T03:05:59;95961.91;;;16.39;63.89
69411;BME280;56604;48.652;9.194;2022-09-03T03:08:26;95954.16;;;16.43;63.94
69411;BME280;56604;48.652;9.194;2022-09-03T03:10:54;95957.38;;;16.40;64.02
69411;BME280;56604;48.652;9.194;2022-09-03T03:13:27;95957.38;;;16.40;64.17
69411;BME280;56604;48.652;9.194;2022-09-03T03:16:01;95959.47;;;16.43;64.37
69411;BME280;56604;48.652;9.194;2022-09-03T03:18:27;95962.13;;;16.43;64.59
69411;BME280;56604;48.652;9.194;2022-09-03T03:20:53;95963.97;;;16.42;64.61
69411;BME280;56604;48.652;9.194;2022-09-03T03:23:19;95963.28;;;16.37;64.82
69411;BME280;56604;48.652;9.194;2022-09-03T03:25:44;95961.22;;;16.34;64.67
69411;BME280;56604;48.652;9.194;2022-09-03T03:28:09;95965.44;;;16.35;64.73
69411;BME280;56604;48.652;9.194;2022-09-03T03:30:38;95959.44;;;16.29;64.90
69411;BME280;56604;48.652;9.194;2022-09-03T03:33:05;95960.28;;;16.25;65.22
69411;BME280;56604;48.652;9.194;2022-09-03T03:35:31;95956.34;;;16.22;65.20
69411;BME280;56604;48.652;9.194;2022-09-03T03:37:57;95954.22;;;16.24;65.27
69411;BME280;56604;48.652;9.194;2022-09-03T03:40:23;95965.13;;;16.23;65.33
69411;BME280;56604;48.652;9.194;2022-09-03T03:42:48;95960.88;;;16.22;65.54
69411;BME280;56604;48.652;9.194;2022-09-03T03:45:14;95965.00;;;16.28;65.57
69411;BME280;56604;48.652;9.194;2022-09-03T03:47:39;95973.97;;;16.32;65.45
69411;BME280;56604;48.652;9.194;2022-09-03T03:50:05;95971.53;;;16.35;65.91
69411;BME280;56604;48.652;9.194;2022-09-03T03:52:30;95978.41;;;16.36;65.78
69411;BME280;56604;48.652;9.194;2022-09-03T03:54:55;95972.72;;;16.43;65.28
69411;BME280;56604;48.652;9.194;2022-09-03T03:57:22;95978.69;;;16.35;65.85
69411;BME280;56604;48.652;9.194;2022-09-03T03:59:47;95975.78;;;16.36;65.75
69411;BME280;56604;48.652;9.194;2022-09-03T04:02:14;95977.59;;;16.36;66.06
69411;BME280;56604;48.652;9.194;2022-09-03T04:04:40;95973.31;;;16.40;66.07
69411;BME280;56604;48.652;9.194;2022-09-03T04:07:05;95976.81;;;16.35;65.87
69411;BME280;56604;48.652;9.194;2022-09-03T04:09:31;95975.78;;;16.36;66.00
69411;BME280;56604;48.652;9.194;2022-09-03T04:11:57;95972.22;;;16.41;66.25
69411;BME280;56604;48.652;9.194;2022-09-03T04:14:23;95981.56;;;16.38;66.02
69411;BME280;56604;48.652;9.194;2022-09-03T04:16:49;95967.50;;;16.38;66.19
69411;BME280;56604;48.652;9.194;2022-09-03T04:19:15;95963.47;;;16.40;65.61
69411;BME280;56604;48.652;9.194;2022-09-03T04:21:41;95968.97;;;16.44;66.12
69411;BME280;56604;48.652;9.194;2022-09-03T04:24:06;95962.88;;;16.44;66.46
69411;BME280;56604;48.652;9.194;2022-09-03T04:26:32;95971.13;;;16.42;66.23
69411;BME280;56604;48.652;9.194;2022-09-03T04:28:59;95969.28;;;16.42;66.10
69411;BME280;56604;48.652;9.194;2022-09-03T04:31:26;95971.13;;;16.42;66.30
69411;BME280;56604;48.652;9.194;2022-09-03T04:33:52;95969.38;;;16.37;66.31
69411;BME280;56604;48.652;9.194;2022-09-03T04:36:21;95971.44;;;16.40;66.22
69411;BME280;56604;48.652;9.194;2022-09-03T04:38:48;95981.34;;;16.35;66.49
69411;BME280;56604;48.652;9.194;2022-09-03T04:41:18;95978.13;;;16.38;66.83
69411;BME280;56604;48.652;9.194;2022-09-03T04:43:44;95973.91;;;16.37;66.82
69411;BME280;56604;48.652;9.194;2022-09-03T04:46:12;95975.88;;;16.45;66.77
69411;BME280;56604;48.652;9.194;2022-09-03T04:48:37;95977.44;;;16.46;67.00
69411;BME280;56604;48.652;9.194;2022-09-03T04:51:12;95975.28;;;16.48;66.76
69411;BME280;56604;48.652;9.194;2022-09-03T04:53:42;95984.31;;;16.47;66.65
69411;BME280;56604;48.652;9.194;2022-09-03T04:56:17;95982.75;;;16.46;66.64
69411;BME280;56604;48.652;9.194;2022-09-03T04:58:44;95979.22;;;16.51;66.42
69411;BME280;56604;48.652;9.194;2022-09-03T05:01:16;95976.28;;;16.52;66.34
69411;BME280;56604;48.652;9.194;2022-09-03T05:03:41;95978.41;;;16.50;66.22
69411;BME280;56604;48.652;9.194;2022-09-03T05:06:07;95977.06;;;16.53;66.51
69411;BME280;56604;48.652;9.194;2022-09-03T05:08:33;95976.78;;;16.54;66.22
69411;BME280;56604;48.652;9.194;2022-09-03T05:11:02;95980.22;;;16.55;65.91
69411;BME280;56604;48.652;9.194;2022-09-03T05:13:28;95978.16;;;16.66;66.20
69411;BME280;56604;48.652;9.194;2022-09-03T05:16:01;95975.41;;;16.71;66.61
69411;BME280;56604;48.652;9.194;2022-09-03T05:18:27;95979.56;;;16.77;65.67
69411;BME280;56604;48.652;9.194;2022-09-03T05:21:00;95967.16;;;16.72;66.45
69411;BME280;56604;48.652;9.194;2022-09-03T05:23:28;95977.84;;;16.67;66.25
69411;BME280;56604;48.652;9.194;2022-09-03T05:25:58;95974.31;;;16.72;66.65
69411;BME280;56604;48.652;9.194;2022-09-03T05:28:25;95980.03;;;16.79;66.78
69411;BME280;56604;48.652;9.194;2022-09-03T05:31:09;95981.97;;;16.73;66.58
69411;BME280;56604;48.652;9.194;2022-09-03T05:33:39;95985.44;;;16.74;66.70
69411;BME280;56604;48.652;9.194;2022-09-03T05:36:09;95986.94;;;16.80;66.75
69411;BME280;56604;48.652;9.194;2022-09-03T05:38:34;95983.88;;;16.86;66.62
69411;BME280;56604;48.652;9.194;2022-09-03T05:41:05;95988.31;;;16.91;66.43
69411;BME280;56604;48.652;9.194;2022-09-03T05:43:32;95991.25;;;17.03;66.21
69411;BME280;56604;48.652;9.194;2022-09-03T05:45:58;95983.47;;;17.21;65.79
69411;BME280;56604;48.652;9.194;2022-09-03T05:48:28;95984.47;;;17.25;65.51
69411;BME280;56604;48.652;9.194;2022-09-03T05:51:08;95993.13;;;17.30;65.62
69411;BME280;56604;48.652;9.194;2022-09-03T05:53:36;95987.06;;;17.39;65.28
69411;BME280;56604;48.652;9.194;2022-09-03T05:56:04;95989.03;;;17.47;65.10
69411;BME280;56604;48.652;9.194;2022-09-03T05:58:41;95995.63;;;17.49;65.09
69411;BME280;56604;48.652;9.194;2022-09-03T06:03:35;95998.69;;;17.57;65.05
69411;BME280;56604;48.652;9.194;2022-09-03T06:06:00;96000.25;;;17.44;65.58
69411;BME280;56604;48.652;9.194;2022-09-03T06:08:25;96000.88;;;17.27;66.21
69411;BME280;56604;48.652;9.194;2022-09-03T06:10:57;96002.66;;;17.31;66.57
69411;BME280;56604;48.652;9.194;2022-09-03T06:13:23;95990.63;;;17.48;66.36
69411;BME280;56604;48.652;9.194;2022-09-03T06:15:48;95996.88;;;17.66;65.96
69411;BME280;56604;48.652;9.194;2022-09-03T06:18:14;95993.44;;;17.65;66.17
69411;BME280;56604;48.652;9.194;2022-09-03T06:20:39;96001.13;;;17.53;66.92
69411;BME280;56604;48.652;9.194;2022-09-03T06:23:04;96001.44;;;17.51;66.96
69411;BME280;56604;48.652;9.194;2022-09-03T06:25:29;96007.78;;;17.28;68.46
69411;BME280;56604;48.652;9.194;2022-09-03T06:27:56;96006.88;;;17.33;68.45
69411;BME280;56604;48.652;9.194;2022-09-03T06:30:21;96005.41;;;17.26;69.29
69411;BME280;56604;48.652;9.194;2022-09-03T06:32:48;96005.22;;;17.23;68.95
69411;BME280;56604;48.652;9.194;2022-09-03T06:35:17;96006.09;;;17.32;68.75
69411;BME280;56604;48.652;9.194;2022-09-03T06:37:43;96005.22;;;17.37;68.54
69411;BME280;56604;48.652;9.194;2022-09-03T06:40:09;96005.91;;;17.42;67.42
69411;BME280;56604;48.652;9.194;2022-09-03T06:42:40;96004.38;;;17.50;67.09
69411;BME280;56604;48.652;9.194;2022-09-03T06:45:07;96004.97;;;17.47;67.78
69411;BME280;56604;48.652;9.194;2022-09-03T06:47:33;95997.47;;;17.63;67.57
69411;BME280;56604;48.652;9.194;2022-09-03T06:49:59;96005.53;;;17.71;67.51
69411;BME280;56604;48.652;9.194;2022-09-03T06:52:26;95999.09;;;17.86;67.30
69411;BME280;56604;48.652;9.194;2022-09-03T06:54:51;95995.13;;;17.97;66.91
69411;BME280;56604;48.652;9.194;2022-09-03T06:57:17;96005.63;;;18.03;67.30
69411;BME280;56604;48.652;9.194;2022-09-03T06:59:42;96005.03;;;18.06;66.93
69411;BME280;56604;48.652;9.194;2022-09-03T07:02:08;96002.25;;;18.11;67.13
69411;BME280;56604;48.652;9.194;2022-09-03T07:04:34;96007.19;;;18.26;66.78
69411;BME280;56604;48.652;9.194;2022-09-03T07:06:59;96004.41;;;18.54;67.08
69411;BME280;56604;48.652;9.194;2022-09-03T07:09:25;96000.50;;;18.60;66.31
69411;BME280;56604;48.652;9.194;2022-09-03T07:11:51;96010.41;;;18.68;65.40
69411;BME280;56604;48.652;9.194;2022-09-03T07:14:19;96009.94;;;18.97;64.91
69411;BME280;56604;48.652;9.194;2022-09-03T07:16:46;96012.53;;;18.80;64.23
69411;BME280;56604;48.652;9.194;2022-09-03T07:19:12;96006.47;;;18.97;64.12
69411;BME280;56604;48.652;9.194;2022-09-03T07:21:39;96005.00;;;19.22;64.20
69411;BME280;56604;48.652;9.194;2022-09-03T07:24:08;96012.69;;;19.32;62.92
69411;BME280;56604;48.652;9.194;2022-09-03T07:26:39;96014.34;;;19.76;62.78
69411;BME280;56604;48.652;9.194;2022-09-03T07:29:06;96012.16;;;19.70;62.64
69411;BME280;56604;48.652;9.194;2022-09-03T07:31:34;96005.44;;;19.81;61.41
69411;BME280;56604;48.652;9.194;2022-09-03T07:34:04;96016.34;;;19.62;61.33
69411;BME280;56604;48.652;9.194;2022-09-03T07:39:11;96015.06;;;19.33;62.03
69411;BME280;56604;48.652;9.194;2022-09-03T07:41:37;96012.91;;;19.53;61.99
69411;BME280;56604;48.652;9.194;2022-09-03T07:44:02;96024.72;;;20.21;59.82
69411;BME280;56604;48.652;9.194;2022-09-03T07:46:30;96028.16;;;20.22;59.79
69411;BME280;56604;48.652;9.194;2022-09-03T07:48:58;96028.94;;;20.31;59.89
69411;BME280;56604;48.652;9.194;2022-09-03T07:51:28;96022.34;;;20.93;58.50
69411;BME280;56604;48.652;9.194;2022-09-03T07:53:56;96018.97;;;20.75;58.61
69411;BME280;56604;48.652;9.194;2022-09-03T07:56:22;96012.09;;;20.57;59.33
69411;BME280;56604;48.652;9.194;2022-09-03T07:58:48;96022.31;;;20.63;59.59
69411;BME280;56604;48.652;9.194;2022-09-03T08:01:16;96028.00;;;20.36;60.20
69411;BME280;56604;48.652;9.194;2022-09-03T08:03:45;96013.19;;;21.41;58.43
69411;BME280;56604;48.652;9.194;2022-09-03T08:06:12;96022.84;;;21.25;58.40
69411;BME280;56604;48.652;9.194;2022-09-03T08:08:39;96020.91;;;21.04;58.71
69411;BME280;56604;48.652;9.194;2022-09-03T08:13:33;96036.50;;;21.62;57.04
69411;BME280;56604;48.652;9.194;2022-09-03T08:15:58;96032.13;;;21.57;56.99
69411;BME280;56604;48.652;9.194;2022-09-03T08:18:25;96037.88;;;21.68;56.74
69411;BME280;56604;48.652;9.194;2022-09-03T08:20:51;96042.44;;;21.67;57.55
69411;BME280;56604;48.652;9.194;2022-09-03T08:23:16;96039.91;;;20.64;59.62
69411;BME280;56604;48.652;9.194;2022-09-03T08:25:42;96035.16;;;21.97;57.88
69411;BME280;56604;48.652;9.194;2022-09-03T08:28:08;96043.41;;;22.47;56.38
69411;BME280;56604;48.652;9.194;2022-09-03T08:30:34;96023.00;;;23.00;55.72
69411;BME280;56604;48.652;9.194;2022-09-03T08:33:00;96034.38;;;23.58;53.57
69411;BME280;56604;48.652;9.194;2022-09-03T08:35:29;96041.75;;;24.54;50.57
69411;BME280;56604;48.652;9.194;2022-09-03T08:37:56;96050.25;;;23.75;50.40
69411;BME280;56604;48.652;9.194;2022-09-03T08:40:21;96049.59;;;23.29;52.46
69411;BME280;56604;48.652;9.194;2022-09-03T08:42:57;96045.84;;;23.95;51.48
69411;BME280;56604;48.652;9.194;2022-09-03T08:45:26;96038.28;;;24.13;51.99
69411;BME280;56604;48.652;9.194;2022-09-03T08:47:57;96047.53;;;23.88;52.33
69411;BME280;56604;48.652;9.194;2022-09-03T08:50:25;96051.50;;;25.06;49.53
69411;BME280;56604;48.652;9.194;2022-09-03T08:58:13;96040.41;;;26.30;45.59
69411;BME280;56604;48.652;9.194;2022-09-03T09:00:50;96048.63;;;25.47;46.54
69411;BME280;56604;48.652;9.194;2022-09-03T09:06:22;96057.59;;;25.35;48.72
69411;BME280;56604;48.652;9.194;2022-09-03T09:09:07;96050.41;;;25.74;47.14
69411;BME280;56604;48.652;9.194;2022-09-03T09:16:48;96063.72;;;24.72;49.51
69411;BME280;56604;48.652;9.194;2022-09-03T09:19:34;96068.34;;;24.87;49.43
69411;BME280;56604;48.652;9.194;2022-09-03T09:22:23;96067.53;;;24.71;49.82
69411;BME280;56604;48.652;9.194;2022-09-03T09:24:52;96059.41;;;24.83;50.80
69411;BME280;56604;48.652;9.194;2022-09-03T09:27:19;96066.31;;;24.68;50.34
69411;BME280;56604;48.652;9.194;2022-09-03T09:29:48;96066.47;;;25.20;48.90
69411;BME280;56604;48.652;9.194;2022-09-03T09:32:15;96069.75;;;25.29;47.85
69411;BME280;56604;48.652;9.194;2022-09-03T09:34:42;96065.13;;;24.82;48.85
69411;BME280;56604;48.652;9.194;2022-09-03T09:37:12;96062.22;;;25.34;47.97
69411;BME280;56604;48.652;9.194;2022-09-03T09:39:39;96061.09;;;24.60;50.75
69411;BME280;56604;48.652;9.194;2022-09-03T09:42:10;96040.69;;;25.70;49.52
69411;BME280;56604;48.652;9.194;2022-09-03T09:44:38;96052.81;;;25.95;48.13
69411;BME280;56604;48.652;9.194;2022-09-03T09:47:11;96048.41;;;26.45;46.26
69411;BME280;56604;48.652;9.194;2022-09-03T09:49:52;96049.69;;;26.32;46.78
69411;BME280;56604;48.652;9.194;2022-09-03T09:52:18;96050.91;;;26.54;46.07
69411;BME280;56604;48.652;9.194;2022-09-03T09:54:44;96045.59;;;26.19;46.81
69411;BME280;56604;48.652;9.194;2022-09-03T09:57:23;96049.59;;;27.10;44.60
69411;BME280;56604;48.652;9.194;2022-09-03T09:59:49;96052.41;;;26.52;46.11
69411;BME280;56604;48.652;9.194;2022-09-03T10:02:26;96045.97;;;26.79;44.90
69411;BME280;56604;48.652;9.194;2022-09-03T10:04:55;96043.25;;;27.22;44.05
69411;BME280;56604;48.652;9.194;2022-09-03T10:07:24;96040.72;;;27.32;43.78
69411;BME280;56604;48.652;9.194;2022-09-03T10:10:05;96043.94;;;27.42;44.29
69411;BME280;56604;48.652;9.194;2022-09-03T10:12:55;96049.72;;;27.17;44.03
69411;BME280;56604;48.652;9.194;2022-09-03T10:15:39;96044.13;;;27.29;44.34
69411;BME280;56604;48.652;9.194;2022-09-03T10:18:28;96052.41;;;26.13;46.51
69411;BME280;56604;48.652;9.194;2022-09-03T10:21:17;96051.28;;;25.27;48.45
69411;BME280;56604;48.652;9.194;2022-09-03T10:23:56;96053.78;;;25.36;48.66
69411;BME280;56604;48.652;9.194;2022-09-03T10:26:23;96052.91;;;25.32;48.30
69411;BME280;56604;48.652;9.194;2022-09-03T10:28:59;96058.47;;;25.07;48.50
69411;BME280;56604;48.652;9.194;2022-09-03T10:37:06;96058.09;;;23.81;51.66
69411;BME280;56604;48.652;9.194;2022-09-03T10:45:28;96056.53;;;23.79;51.56
69411;BME280;56604;48.652;9.194;2022-09-03T10:51:05;96052.75;;;23.31;53.13
69411;BME280;56604;48.652;9.194;2022-09-03T10:56:24;96054.44;;;22.90;53.89
69411;BME280;56604;48.652;9.194;2022-09-03T11:07:03;96032.50;;;23.09;54.29
69411;BME280;56604;48.652;9.194;2022-09-03T11:12:01;96048.03;;;23.04;53.94
69411;BME280;56604;48.652;9.194;2022-09-03T11:14:43;96043.53;;;23.94;51.76
69411;BME280;56604;48.652;9.194;2022-09-03T11:17:15;96045.34;;;23.41;53.02
69411;BME280;56604;48.652;9.194;2022-09-03T11:19:48;96039.31;;;23.19;53.17
69411;BME280;56604;48.652;9.194;2022-09-03T11:22:16;96027.47;;;23.32;53.16
69411;BME280;56604;48.652;9.194;2022-09-03T11:24:45;96023.22;;;23.07;55.22
69411;BME280;56604;48.652;9.194;2022-09-03T11:30:38;96023.09;;;22.91;55.49
69411;BME280;56604;48.652;9.194;2022-09-03T11:33:08;96026.53;;;22.92;55.57
69411;BME280;56604;48.652;9.194;2022-09-03T11:38:01;96023.69;;;23.09;54.94
69411;BME280;56604;48.652;9.194;2022-09-03T11:40:34;96018.94;;;22.36;56.53
69411;BME280;56604;48.652;9.194;2022-09-03T11:45:36;96029.66;;;22.15;57.60
69411;BME280;56604;48.652;9.194;2022-09-03T11:48:16;96027.84;;;22.07;56.57
69411;BME280;56604;48.652;9.194;2022-09-03T11:50:52;96045.72;;;21.73;58.14
69411;BME280;56604;48.652;9.194;2022-09-03T11:55:53;96080.72;;;21.29;60.27
69411;BME280;56604;48.652;9.194;2022-09-03T12:00:49;96095.91;;;20.99;62.46
69411;BME280;56604;48.652;9.194;2022-09-03T12:03:23;96109.81;;;20.84;63.81
69411;BME280;56604;48.652;9.194;2022-09-03T12:17:56;96108.75;;;17.83;78.44
69411;BME280;56604;48.652;9.194;2022-09-03T12:20:42;96112.06;;;17.47;80.56
69411;BME280;56604;48.652;9.194;2022-09-03T12:23:12;96113.56;;;17.53;79.74
69411;BME280;56604;48.652;9.194;2022-09-03T12:25:45;96122.72;;;17.20;76.73
69411;BME280;56604;48.652;9.194;2022-09-03T12:28:16;96130.34;;;16.42;82.06
69411;BME280;56604;48.652;9.194;2022-09-03T12:30:43;96123.31;;;16.51;83.59
69411;BME280;56604;48.652;9.194;2022-09-03T12:33:15;96116.53;;;16.45;83.67
69411;BME280;56604;48.652;9.194;2022-09-03T12:35:41;96109.97;;;16.56;85.07
69411;BME280;56604;48.652;9.194;2022-09-03T12:38:07;96126.19;;;16.36;84.15
69411;BME280;56604;48.652;9.194;2022-09-03T12:40:32;96124.34;;;16.36;85.03
69411;BME280;56604;48.652;9.194;2022-09-03T12:43:15;96125.38;;;16.54;85.10
69411;BME280;56604;48.652;9.194;2022-09-03T12:45:43;96121.47;;;16.33;85.79
69411;BME280;56604;48.652;9.194;2022-09-03T12:48:19;96132.91;;;16.47;85.78
69411;BME280;56604;48.652;9.194;2022-09-03T12:50:46;96128.38;;;16.67;86.95
69411;BME280;56604;48.652;9.194;2022-09-03T12:53:31;96132.25;;;16.55;86.59
69411;BME280;56604;48.652;9.194;2022-09-03T12:55:58;96130.63;;;16.59;86.66
69411;BME280;56604;48.652;9.194;2022-09-03T12:58:39;96125.72;;;16.67;86.44
69411;BME280;56604;48.652;9.194;2022-09-03T13:01:16;96124.56;;;16.40;87.08
69411;BME280;56604;48.652;9.194;2022-09-03T13:03:54;96122.16;;;16.57;86.91
69411;BME280;56604;48.652;9.194;2022-09-03T13:06:38;96119.69;;;16.80;87.33
69411;BME280;56604;48.652;9.194;2022-09-03T13:09:09;96118.94;;;17.07;86.54
69411;BME280;56604;48.652;9.194;2022-09-03T13:11:35;96118.97;;;17.21;85.04
69411;BME280;56604;48.652;9.194;2022-09-03T13:14:06;96125.16;;;17.30;84.16
69411;BME280;56604;48.652;9.194;2022-09-03T13:24:52;96124.31;;;17.48;84.97
69411;BME280;56604;48.652;9.194;2022-09-03T13:27:38;96124.09;;;17.86;83.91
69411;BME280;56604;48.652;9.194;2022-09-03T13:30:12;96127.84;;;17.58;83.79
69411;BME280;56604;48.652;9.194;2022-09-03T13:41:13;96127.94;;;18.30;81.08
69411;BME280;56604;48.652;9.194;2022-09-03T13:43:50;96120.69;;;18.67;79.77
69411;BME280;56604;48.652;9.194;2022-09-03T13:46:44;96137.56;;;18.40;80.68
69411;BME280;56604;48.652;9.194;2022-09-03T13:52:10;96124.06;;;18.00;82.67
69411;BME280;56604;48.652;9.194;2022-09-03T13:54:45;96114.22;;;17.73;83.47
69411;BME280;56604;48.652;9.194;2022-09-03T14:00:10;96115.81;;;17.46;83.49
69411;BME280;56604;48.652;9.194;2022-09-03T14:08:40;96095.84;;;17.90;83.07
69411;BME280;56604;48.652;9.194;2022-09-03T14:11:20;96094.72;;;17.91;83.57
69411;BME280;56604;48.652;9.194;2022-09-03T14:16:43;96098.25;;;18.01;84.29
69411;BME280;56604;48.652;9.194;2022-09-03T14:19:18;96092.28;;;18.17;82.46
69411;BME280;56604;48.652;9.194;2022-09-03T14:21:55;96102.13;;;18.53;82.35
69411;BME280;56604;48.652;9.194;2022-09-03T14:24:27;96107.03;;;18.82;81.00
69411;BME280;56604;48.652;9.194;2022-09-03T14:26:56;96100.03;;;18.95;79.85
69411;BME280;56604;48.652;9.194;2022-09-03T14:29:26;96102.03;;;18.90;79.28
69411;BME280;56604;48.652;9.194;2022-09-03T14:32:20;96097.03;;;19.19;78.49
69411;BME280;56604;48.652;9.194;2022-09-03T14:34:53;96096.69;;;19.21;78.50
69411;BME280;56604;48.652;9.194;2022-09-03T14:40:29;96093.31;;;18.98;77.98
69411;BME280;56604;48.652;9.194;2022-09-03T14:49:11;96098.66;;;18.75;78.77
69411;BME280;56604;48.652;9.194;2022-09-03T14:57:34;96095.31;;;18.70;80.71
69411;BME280;56604;48.652;9.194;2022-09-03T15:08:37;96079.25;;;19.06;79.79
69411;BME280;56604;48.652;9.194;2022-09-03T15:11:14;96086.41;;;18.97;81.82
69411;BME280;56604;48.652;9.194;2022-09-03T15:27:08;96097.34;;;19.66;77.53
69411;BME280;56604;48.652;9.194;2022-09-03T15:36:20;96096.50;;;19.57;78.68
69411;BME280;56604;48.652;9.194;2022-09-03T15:38:57;96090.84;;;19.50;78.94
69411;BME280;56604;48.652;9.194;2022-09-03T15:42:00;96084.56;;;19.46;80.57
69411;BME280;56604;48.652;9.194;2022-09-03T15:44:37;96087.22;;;19.46;79.59
69411;BME280;56604;48.652;9.194;2022-09-03T15:47:08;96092.34;;;19.73;80.05
69411;BME280;56604;48.652;9.194;2022-09-03T15:49:51;96091.25;;;19.74;78.97
69411;BME280;56604;48.652;9.194;2022-09-03T15:52:31;96096.13;;;19.81;79.21
69411;BME280;56604;48.652;9.194;2022-09-03T15:55:34;96097.78;;;19.60;79.83
69411;BME280;56604;48.652;9.194;2022-09-03T16:00:52;96101.72;;;19.62;80.26
69411;BME280;56604;48.652;9.194;2022-09-03T16:03:32;96096.72;;;19.69;78.73
69411;BME280;56604;48.652;9.194;2022-09-03T16:06:06;96106.44;;;19.65;79.71
69411;BME280;56604;48.652;9.194;2022-09-03T16:08:54;96113.63;;;19.65;79.21
69411;BME280;56604;48.652;9.194;2022-09-03T16:19:22;96105.47;;;19.61;78.22
69411;BME280;56604;48.652;9.194;2022-09-03T16:21:58;96103.50;;;19.36;78.29
69411;BME280;56604;48.652;9.194;2022-09-03T16:24:36;96107.78;;;19.54;78.20
69411;BME280;56604;48.652;9.194;2022-09-03T16:27:21;96101.94;;;19.35;78.81
69411;BME280;56604;48.652;9.194;2022-09-03T16:30:00;96103.22;;;19.46;79.19
69411;BME280;56604;48.652;9.194;2022-09-03T16:35:19;96093.19;;;19.43;78.68
69411;BME280;56604;48.652;9.194;2022-09-03T16:41:09;96095.66;;;19.30;79.40
69411;BME280;56604;48.652;9.194;2022-09-03T16:43:43;96094.69;;;19.26;78.85
69411;BME280;56604;48.652;9.194;2022-09-03T16:51:51;96101.16;;;19.43;78.05